sensor_id;sensor_type;location;lat;lon;timestamp;P1;durP1;ratioP1;P2;durP2;ratioP2
83423;SDS011;73355;49.044;8.686;2024-02-23T00:01:03;0.88;;;0.22;;
83423;SDS011;73355;49.044;8.686;2024-02-23T00:03:28;0.63;;;0.10;;
83423;SDS011;73355;49.044;8.686;2024-02-23T00:05:54;1.30;;;0.10;;
83423;SDS011;73355;49.044;8.686;2024-02-23T00:08:19;1.40;;;0.10;;
83423;SDS011;73355;49.044;8.686;2024-02-23T00:10:44;1.17;;;0.17;;
83423;SDS011;73355;49.044;8.686;2024-02-23T00:13:09;1.20;;;0.30;;
83423;SDS011;73355;49.044;8.686;2024-02-23T00:15:35;1.43;;;0.27;;
83423;SDS011;73355;49.044;8.686;2024-02-23T00:18:00;2.60;;;0.30;;
83423;SDS011;73355;49.044;8.686;2024-02-23T00:20:28;0.43;;;0.15;;
83423;SDS011;73355;49.044;8.686;2024-02-23T00:22:53;0.87;;;0.27;;
83423;SDS011;73355;49.044;8.686;2024-02-23T00:25:18;1.53;;;0.30;;
83423;SDS011;73355;49.044;8.686;2024-02-23T00:27:44;0.10;;;0.10;;
83423;SDS011;73355;49.044;8.686;2024-02-23T00:30:09;1.80;;;0.30;;
83423;SDS011;73355;49.044;8.686;2024-02-23T00:32:35;0.65;;;0.15;;
83423;SDS011;73355;49.044;8.686;2024-02-23T00:35:00;1.30;;;0.13;;
83423;SDS011;73355;49.044;8.686;2024-02-23T00:37:26;1.00;;;0.10;;
83423;SDS011;73355;49.044;8.686;2024-02-23T00:39:51;1.43;;;0.20;;
83423;SDS011;73355;49.044;8.686;2024-02-23T00:42:16;2.03;;;0.20;;
83423;SDS011;73355;49.044;8.686;2024-02-23T00:44:41;1.43;;;0.40;;
83423;SDS011;73355;49.044;8.686;2024-02-23T00:47:07;3.40;;;0.40;;
83423;SDS011;73355;49.044;8.686;2024-02-23T00:49:32;2.40;;;0.20;;
83423;SDS011;73355;49.044;8.686;2024-02-23T00:51:57;1.20;;;0.20;;
83423;SDS011;73355;49.044;8.686;2024-02-23T00:54:22;1.67;;;0.27;;
83423;SDS011;73355;49.044;8.686;2024-02-23T00:56:48;0.73;;;0.30;;
83423;SDS011;73355;49.044;8.686;2024-02-23T00:59:13;1.83;;;0.17;;
83423;SDS011;73355;49.044;8.686;2024-02-23T01:01:38;0.97;;;0.20;;
83423;SDS011;73355;49.044;8.686;2024-02-23T01:04:04;3.17;;;0.30;;
83423;SDS011;73355;49.044;8.686;2024-02-23T01:06:29;2.20;;;0.20;;
83423;SDS011;73355;49.044;8.686;2024-02-23T01:08:54;2.20;;;0.50;;
83423;SDS011;73355;49.044;8.686;2024-02-23T01:11:20;2.75;;;0.40;;
83423;SDS011;73355;49.044;8.686;2024-02-23T01:13:45;3.00;;;0.40;;
83423;SDS011;73355;49.044;8.686;2024-02-23T01:16:10;1.47;;;0.30;;
83423;SDS011;73355;49.044;8.686;2024-02-23T01:18:36;2.07;;;0.40;;
83423;SDS011;73355;49.044;8.686;2024-02-23T01:21:01;1.60;;;0.30;;
83423;SDS011;73355;49.044;8.686;2024-02-23T01:23:26;1.50;;;0.27;;
83423;SDS011;73355;49.044;8.686;2024-02-23T01:25:51;0.87;;;0.40;;
83423;SDS011;73355;49.044;8.686;2024-02-23T01:28:17;2.83;;;0.47;;
83423;SDS011;73355;49.044;8.686;2024-02-23T01:30:42;0.77;;;0.23;;
83423;SDS011;73355;49.044;8.686;2024-02-23T01:33:07;3.55;;;0.30;;
83423;SDS011;73355;49.044;8.686;2024-02-23T01:35:33;0.35;;;0.10;;
83423;SDS011;73355;49.044;8.686;2024-02-23T01:37:58;1.33;;;0.17;;
83423;SDS011;73355;49.044;8.686;2024-02-23T01:40:23;1.30;;;0.30;;
83423;SDS011;73355;49.044;8.686;2024-02-23T01:42:49;0.87;;;0.20;;
83423;SDS011;73355;49.044;8.686;2024-02-23T01:45:14;1.30;;;0.30;;
83423;SDS011;73355;49.044;8.686;2024-02-23T01:47:39;0.93;;;0.20;;
83423;SDS011;73355;49.044;8.686;2024-02-23T01:50:05;1.13;;;0.30;;
83423;SDS011;73355;49.044;8.686;2024-02-23T01:52:32;2.88;;;0.30;;
83423;SDS011;73355;49.044;8.686;2024-02-23T01:54:58;1.10;;;0.13;;
83423;SDS011;73355;49.044;8.686;2024-02-23T01:57:23;1.40;;;0.28;;
83423;SDS011;73355;49.044;8.686;2024-02-23T01:59:49;2.63;;;0.30;;
83423;SDS011;73355;49.044;8.686;2024-02-23T02:02:15;1.23;;;0.30;;
83423;SDS011;73355;49.044;8.686;2024-02-23T02:04:40;2.25;;;0.40;;
83423;SDS011;73355;49.044;8.686;2024-02-23T02:07:06;0.43;;;0.20;;
83423;SDS011;73355;49.044;8.686;2024-02-23T02:09:31;0.70;;;0.17;;
83423;SDS011;73355;49.044;8.686;2024-02-23T02:11:57;0.57;;;0.22;;
83423;SDS011;73355;49.044;8.686;2024-02-23T02:14:22;1.27;;;0.20;;
83423;SDS011;73355;49.044;8.686;2024-02-23T02:16:47;0.67;;;0.10;;
83423;SDS011;73355;49.044;8.686;2024-02-23T02:19:13;0.53;;;0.23;;
83423;SDS011;73355;49.044;8.686;2024-02-23T02:21:39;2.90;;;0.40;;
83423;SDS011;73355;49.044;8.686;2024-02-23T02:24:06;2.80;;;0.50;;
83423;SDS011;73355;49.044;8.686;2024-02-23T02:26:31;1.98;;;0.30;;
83423;SDS011;73355;49.044;8.686;2024-02-23T02:28:57;3.20;;;0.83;;
83423;SDS011;73355;49.044;8.686;2024-02-23T02:31:22;1.73;;;0.40;;
83423;SDS011;73355;49.044;8.686;2024-02-23T02:33:48;0.93;;;0.60;;
83423;SDS011;73355;49.044;8.686;2024-02-23T02:36:13;0.57;;;0.23;;
83423;SDS011;73355;49.044;8.686;2024-02-23T02:38:38;0.73;;;0.30;;
83423;SDS011;73355;49.044;8.686;2024-02-23T02:41:04;2.03;;;0.40;;
83423;SDS011;73355;49.044;8.686;2024-02-23T02:43:30;1.23;;;0.43;;
83423;SDS011;73355;49.044;8.686;2024-02-23T02:45:55;0.85;;;0.22;;
83423;SDS011;73355;49.044;8.686;2024-02-23T02:48:21;0.38;;;0.20;;
83423;SDS011;73355;49.044;8.686;2024-02-23T02:50:47;0.98;;;0.38;;
83423;SDS011;73355;49.044;8.686;2024-02-23T02:53:12;1.03;;;0.30;;
83423;SDS011;73355;49.044;8.686;2024-02-23T02:55:44;0.83;;;0.20;;
83423;SDS011;73355;49.044;8.686;2024-02-23T02:58:12;1.42;;;0.20;;
83423;SDS011;73355;49.044;8.686;2024-02-23T03:00:38;2.65;;;0.47;;
83423;SDS011;73355;49.044;8.686;2024-02-23T03:03:04;0.93;;;0.20;;
83423;SDS011;73355;49.044;8.686;2024-02-23T03:05:29;1.45;;;0.20;;
83423;SDS011;73355;49.044;8.686;2024-02-23T03:07:54;0.50;;;0.27;;
83423;SDS011;73355;49.044;8.686;2024-02-23T03:10:20;1.20;;;0.40;;
83423;SDS011;73355;49.044;8.686;2024-02-23T03:12:45;0.90;;;0.40;;
83423;SDS011;73355;49.044;8.686;2024-02-23T03:15:10;0.67;;;0.13;;
83423;SDS011;73355;49.044;8.686;2024-02-23T03:17:36;1.52;;;0.30;;
83423;SDS011;73355;49.044;8.686;2024-02-23T03:20:01;2.03;;;0.17;;
83423;SDS011;73355;49.044;8.686;2024-02-23T03:22:30;0.90;;;0.30;;
83423;SDS011;73355;49.044;8.686;2024-02-23T03:24:55;2.05;;;0.20;;
83423;SDS011;73355;49.044;8.686;2024-02-23T03:27:21;0.90;;;0.30;;
83423;SDS011;73355;49.044;8.686;2024-02-23T03:29:53;0.98;;;0.13;;
83423;SDS011;73355;49.044;8.686;2024-02-23T03:32:18;0.90;;;0.20;;
83423;SDS011;73355;49.044;8.686;2024-02-23T03:34:44;2.47;;;0.25;;
83423;SDS011;73355;49.044;8.686;2024-02-23T03:37:09;3.47;;;0.30;;
83423;SDS011;73355;49.044;8.686;2024-02-23T03:39:35;0.23;;;0.13;;
83423;SDS011;73355;49.044;8.686;2024-02-23T03:42:01;0.40;;;0.20;;
83423;SDS011;73355;49.044;8.686;2024-02-23T03:44:27;0.82;;;0.30;;
83423;SDS011;73355;49.044;8.686;2024-02-23T03:46:52;0.27;;;0.13;;
83423;SDS011;73355;49.044;8.686;2024-02-23T03:49:17;2.73;;;0.40;;
83423;SDS011;73355;49.044;8.686;2024-02-23T03:51:43;1.00;;;0.40;;
83423;SDS011;73355;49.044;8.686;2024-02-23T03:54:08;3.00;;;0.50;;
83423;SDS011;73355;49.044;8.686;2024-02-23T03:56:40;1.43;;;0.40;;
83423;SDS011;73355;49.044;8.686;2024-02-23T03:59:06;1.75;;;0.28;;
83423;SDS011;73355;49.044;8.686;2024-02-23T04:01:34;0.55;;;0.10;;
83423;SDS011;73355;49.044;8.686;2024-02-23T04:04:00;3.13;;;0.40;;
83423;SDS011;73355;49.044;8.686;2024-02-23T04:06:25;0.83;;;0.23;;
83423;SDS011;73355;49.044;8.686;2024-02-23T04:08:50;1.37;;;0.20;;
83423;SDS011;73355;49.044;8.686;2024-02-23T04:11:16;0.30;;;0.10;;
83423;SDS011;73355;49.044;8.686;2024-02-23T04:13:41;0.77;;;0.17;;
83423;SDS011;73355;49.044;8.686;2024-02-23T04:16:06;2.43;;;0.27;;
83423;SDS011;73355;49.044;8.686;2024-02-23T04:18:31;0.70;;;0.20;;
83423;SDS011;73355;49.044;8.686;2024-02-23T04:20:57;0.10;;;0.10;;
83423;SDS011;73355;49.044;8.686;2024-02-23T04:23:22;0.87;;;0.23;;
83423;SDS011;73355;49.044;8.686;2024-02-23T04:25:47;0.37;;;0.10;;
83423;SDS011;73355;49.044;8.686;2024-02-23T04:28:12;1.97;;;0.30;;
83423;SDS011;73355;49.044;8.686;2024-02-23T04:30:38;0.67;;;0.23;;
83423;SDS011;73355;49.044;8.686;2024-02-23T04:33:03;2.35;;;0.30;;
83423;SDS011;73355;49.044;8.686;2024-02-23T04:35:29;1.27;;;0.30;;
83423;SDS011;73355;49.044;8.686;2024-02-23T04:37:54;0.43;;;0.13;;
83423;SDS011;73355;49.044;8.686;2024-02-23T04:40:19;0.90;;;0.20;;
83423;SDS011;73355;49.044;8.686;2024-02-23T04:42:44;1.97;;;0.20;;
83423;SDS011;73355;49.044;8.686;2024-02-23T04:45:12;1.92;;;0.30;;
83423;SDS011;73355;49.044;8.686;2024-02-23T04:47:37;2.40;;;0.30;;
83423;SDS011;73355;49.044;8.686;2024-02-23T04:50:05;2.17;;;0.40;;
83423;SDS011;73355;49.044;8.686;2024-02-23T04:52:31;1.30;;;0.52;;
83423;SDS011;73355;49.044;8.686;2024-02-23T04:54:56;2.43;;;0.40;;
83423;SDS011;73355;49.044;8.686;2024-02-23T04:57:21;3.77;;;0.37;;
83423;SDS011;73355;49.044;8.686;2024-02-23T04:59:47;3.50;;;0.40;;
83423;SDS011;73355;49.044;8.686;2024-02-23T05:02:12;1.17;;;0.20;;
83423;SDS011;73355;49.044;8.686;2024-02-23T05:04:38;0.60;;;0.15;;
83423;SDS011;73355;49.044;8.686;2024-02-23T05:07:03;0.87;;;0.10;;
83423;SDS011;73355;49.044;8.686;2024-02-23T05:09:29;1.50;;;0.20;;
83423;SDS011;73355;49.044;8.686;2024-02-23T05:11:54;2.27;;;0.20;;
83423;SDS011;73355;49.044;8.686;2024-02-23T05:14:20;3.00;;;0.30;;
83423;SDS011;73355;49.044;8.686;2024-02-23T05:16:45;1.60;;;0.20;;
83423;SDS011;73355;49.044;8.686;2024-02-23T05:19:10;1.20;;;0.20;;
83423;SDS011;73355;49.044;8.686;2024-02-23T05:21:35;0.77;;;0.20;;
83423;SDS011;73355;49.044;8.686;2024-02-23T05:24:01;0.73;;;0.10;;
83423;SDS011;73355;49.044;8.686;2024-02-23T05:26:26;2.55;;;0.22;;
83423;SDS011;73355;49.044;8.686;2024-02-23T05:28:51;1.73;;;0.10;;
83423;SDS011;73355;49.044;8.686;2024-02-23T05:31:17;1.45;;;0.00;;
83423;SDS011;73355;49.044;8.686;2024-02-23T05:33:43;0.77;;;0.10;;
83423;SDS011;73355;49.044;8.686;2024-02-23T05:36:08;1.13;;;0.17;;
83423;SDS011;73355;49.044;8.686;2024-02-23T05:38:33;0.93;;;0.17;;
83423;SDS011;73355;49.044;8.686;2024-02-23T05:40:59;0.60;;;0.20;;
83423;SDS011;73355;49.044;8.686;2024-02-23T05:43:24;0.57;;;0.10;;
83423;SDS011;73355;49.044;8.686;2024-02-23T05:45:50;0.68;;;0.10;;
83423;SDS011;73355;49.044;8.686;2024-02-23T05:48:15;0.22;;;0.10;;
83423;SDS011;73355;49.044;8.686;2024-02-23T05:50:41;0.83;;;0.27;;
83423;SDS011;73355;49.044;8.686;2024-02-23T05:53:06;0.70;;;0.20;;
83423;SDS011;73355;49.044;8.686;2024-02-23T05:55:31;1.20;;;0.50;;
83423;SDS011;73355;49.044;8.686;2024-02-23T05:57:56;1.20;;;0.40;;
83423;SDS011;73355;49.044;8.686;2024-02-23T06:00:22;0.77;;;0.27;;
83423;SDS011;73355;49.044;8.686;2024-02-23T06:02:47;0.93;;;0.20;;
83423;SDS011;73355;49.044;8.686;2024-02-23T06:05:13;0.68;;;0.20;;
83423;SDS011;73355;49.044;8.686;2024-02-23T06:07:38;0.55;;;0.17;;
83423;SDS011;73355;49.044;8.686;2024-02-23T06:10:05;0.88;;;0.20;;
83423;SDS011;73355;49.044;8.686;2024-02-23T06:12:30;0.32;;;0.20;;
83423;SDS011;73355;49.044;8.686;2024-02-23T06:14:56;0.38;;;0.20;;
83423;SDS011;73355;49.044;8.686;2024-02-23T06:17:23;2.10;;;0.25;;
83423;SDS011;73355;49.044;8.686;2024-02-23T06:19:48;0.93;;;0.20;;
83423;SDS011;73355;49.044;8.686;2024-02-23T06:22:14;2.00;;;0.40;;
83423;SDS011;73355;49.044;8.686;2024-02-23T06:24:41;1.88;;;0.52;;
83423;SDS011;73355;49.044;8.686;2024-02-23T06:27:07;1.17;;;0.38;;
83423;SDS011;73355;49.044;8.686;2024-02-23T06:29:33;0.65;;;0.20;;
83423;SDS011;73355;49.044;8.686;2024-02-23T06:31:58;1.90;;;0.37;;
83423;SDS011;73355;49.044;8.686;2024-02-23T06:34:26;1.83;;;0.22;;
83423;SDS011;73355;49.044;8.686;2024-02-23T06:36:51;1.33;;;0.30;;
83423;SDS011;73355;49.044;8.686;2024-02-23T06:39:16;1.57;;;0.37;;
83423;SDS011;73355;49.044;8.686;2024-02-23T06:41:43;1.92;;;0.45;;
83423;SDS011;73355;49.044;8.686;2024-02-23T06:44:08;3.72;;;0.30;;
83423;SDS011;73355;49.044;8.686;2024-02-23T06:46:33;2.43;;;0.20;;
83423;SDS011;73355;49.044;8.686;2024-02-23T06:48:59;1.07;;;0.47;;
83423;SDS011;73355;49.044;8.686;2024-02-23T06:51:24;1.10;;;0.40;;
83423;SDS011;73355;49.044;8.686;2024-02-23T06:53:49;1.97;;;0.50;;
83423;SDS011;73355;49.044;8.686;2024-02-23T06:56:14;0.60;;;0.30;;
83423;SDS011;73355;49.044;8.686;2024-02-23T06:58:40;1.20;;;0.30;;
83423;SDS011;73355;49.044;8.686;2024-02-23T07:01:05;2.25;;;0.32;;
83423;SDS011;73355;49.044;8.686;2024-02-23T07:03:31;1.73;;;0.50;;
83423;SDS011;73355;49.044;8.686;2024-02-23T07:05:57;2.75;;;0.30;;
83423;SDS011;73355;49.044;8.686;2024-02-23T07:08:22;0.40;;;0.13;;
83423;SDS011;73355;49.044;8.686;2024-02-23T07:10:48;1.87;;;0.30;;
83423;SDS011;73355;49.044;8.686;2024-02-23T07:13:13;2.47;;;0.60;;
83423;SDS011;73355;49.044;8.686;2024-02-23T07:15:38;4.10;;;0.40;;
83423;SDS011;73355;49.044;8.686;2024-02-23T07:18:04;1.43;;;0.30;;
83423;SDS011;73355;49.044;8.686;2024-02-23T07:20:29;1.50;;;0.40;;
83423;SDS011;73355;49.044;8.686;2024-02-23T07:22:55;1.02;;;0.45;;
83423;SDS011;73355;49.044;8.686;2024-02-23T07:25:20;2.70;;;0.47;;
83423;SDS011;73355;49.044;8.686;2024-02-23T07:27:45;3.50;;;0.70;;
83423;SDS011;73355;49.044;8.686;2024-02-23T07:30:13;4.50;;;0.43;;
83423;SDS011;73355;49.044;8.686;2024-02-23T07:32:39;1.42;;;0.30;;
83423;SDS011;73355;49.044;8.686;2024-02-23T07:35:04;2.77;;;0.57;;
83423;SDS011;73355;49.044;8.686;2024-02-23T07:37:30;4.00;;;0.60;;
83423;SDS011;73355;49.044;8.686;2024-02-23T07:39:55;2.10;;;0.50;;
83423;SDS011;73355;49.044;8.686;2024-02-23T07:42:20;1.17;;;0.38;;
83423;SDS011;73355;49.044;8.686;2024-02-23T07:44:46;1.17;;;0.50;;
83423;SDS011;73355;49.044;8.686;2024-02-23T07:47:11;2.20;;;0.30;;
83423;SDS011;73355;49.044;8.686;2024-02-23T07:49:37;1.80;;;0.50;;
83423;SDS011;73355;49.044;8.686;2024-02-23T07:52:03;1.63;;;0.40;;
83423;SDS011;73355;49.044;8.686;2024-02-23T07:54:28;1.83;;;0.40;;
83423;SDS011;73355;49.044;8.686;2024-02-23T07:56:54;1.88;;;0.55;;
83423;SDS011;73355;49.044;8.686;2024-02-23T07:59:19;1.35;;;0.47;;
83423;SDS011;73355;49.044;8.686;2024-02-23T08:01:45;2.17;;;0.53;;
83423;SDS011;73355;49.044;8.686;2024-02-23T08:04:10;2.47;;;0.60;;
83423;SDS011;73355;49.044;8.686;2024-02-23T08:06:35;1.67;;;0.50;;
83423;SDS011;73355;49.044;8.686;2024-02-23T08:09:01;1.30;;;0.40;;
83423;SDS011;73355;49.044;8.686;2024-02-23T08:11:27;1.17;;;0.50;;
83423;SDS011;73355;49.044;8.686;2024-02-23T08:13:52;3.03;;;0.70;;
83423;SDS011;73355;49.044;8.686;2024-02-23T08:16:18;3.30;;;0.80;;
83423;SDS011;73355;49.044;8.686;2024-02-23T08:18:43;1.10;;;0.40;;
83423;SDS011;73355;49.044;8.686;2024-02-23T08:21:09;0.40;;;0.23;;
83423;SDS011;73355;49.044;8.686;2024-02-23T08:23:35;2.70;;;0.65;;
83423;SDS011;73355;49.044;8.686;2024-02-23T08:26:01;1.58;;;0.50;;
83423;SDS011;73355;49.044;8.686;2024-02-23T08:28:26;2.07;;;0.30;;
83423;SDS011;73355;49.044;8.686;2024-02-23T08:30:51;1.67;;;0.45;;
83423;SDS011;73355;49.044;8.686;2024-02-23T08:33:18;1.08;;;0.30;;
83423;SDS011;73355;49.044;8.686;2024-02-23T08:35:43;2.42;;;0.40;;
83423;SDS011;73355;49.044;8.686;2024-02-23T08:38:08;1.37;;;0.43;;
83423;SDS011;73355;49.044;8.686;2024-02-23T08:40:34;3.10;;;0.53;;
83423;SDS011;73355;49.044;8.686;2024-02-23T08:42:59;2.75;;;0.45;;
83423;SDS011;73355;49.044;8.686;2024-02-23T08:45:25;2.33;;;0.43;;
83423;SDS011;73355;49.044;8.686;2024-02-23T08:47:50;1.30;;;0.30;;
83423;SDS011;73355;49.044;8.686;2024-02-23T08:50:15;1.73;;;0.40;;
83423;SDS011;73355;49.044;8.686;2024-02-23T08:52:40;1.92;;;0.38;;
83423;SDS011;73355;49.044;8.686;2024-02-23T08:55:09;0.73;;;0.40;;
83423;SDS011;73355;49.044;8.686;2024-02-23T08:57:37;1.65;;;0.40;;
83423;SDS011;73355;49.044;8.686;2024-02-23T09:00:03;1.90;;;0.40;;
83423;SDS011;73355;49.044;8.686;2024-02-23T09:02:29;3.25;;;0.52;;
83423;SDS011;73355;49.044;8.686;2024-02-23T09:04:55;3.15;;;1.10;;
83423;SDS011;73355;49.044;8.686;2024-02-23T09:07:21;2.00;;;0.40;;
83423;SDS011;73355;49.044;8.686;2024-02-23T09:09:46;2.60;;;0.73;;
83423;SDS011;73355;49.044;8.686;2024-02-23T09:12:13;3.25;;;0.60;;
83423;SDS011;73355;49.044;8.686;2024-02-23T09:14:41;3.78;;;0.30;;
83423;SDS011;73355;49.044;8.686;2024-02-23T09:17:06;1.45;;;0.47;;
83423;SDS011;73355;49.044;8.686;2024-02-23T09:19:33;6.28;;;0.75;;
83423;SDS011;73355;49.044;8.686;2024-02-23T09:21:58;0.30;;;0.20;;
83423;SDS011;73355;49.044;8.686;2024-02-23T09:24:25;1.35;;;0.40;;
83423;SDS011;73355;49.044;8.686;2024-02-23T09:26:50;3.58;;;0.52;;
83423;SDS011;73355;49.044;8.686;2024-02-23T09:29:15;2.20;;;0.53;;
83423;SDS011;73355;49.044;8.686;2024-02-23T09:31:41;0.93;;;0.40;;
83423;SDS011;73355;49.044;8.686;2024-02-23T09:34:06;2.93;;;0.40;;
83423;SDS011;73355;49.044;8.686;2024-02-23T09:36:31;0.97;;;0.37;;
83423;SDS011;73355;49.044;8.686;2024-02-23T09:38:56;3.67;;;0.50;;
83423;SDS011;73355;49.044;8.686;2024-02-23T09:41:22;1.13;;;0.50;;
83423;SDS011;73355;49.044;8.686;2024-02-23T09:43:49;0.50;;;0.30;;
83423;SDS011;73355;49.044;8.686;2024-02-23T09:46:15;1.80;;;0.40;;
83423;SDS011;73355;49.044;8.686;2024-02-23T09:48:45;3.33;;;0.30;;
83423;SDS011;73355;49.044;8.686;2024-02-23T09:51:14;2.03;;;0.45;;
83423;SDS011;73355;49.044;8.686;2024-02-23T09:53:40;3.13;;;0.60;;
83423;SDS011;73355;49.044;8.686;2024-02-23T09:56:06;4.47;;;0.50;;
83423;SDS011;73355;49.044;8.686;2024-02-23T09:58:36;2.08;;;0.40;;
83423;SDS011;73355;49.044;8.686;2024-02-23T10:01:02;1.92;;;0.32;;
83423;SDS011;73355;49.044;8.686;2024-02-23T10:03:29;1.42;;;0.40;;
83423;SDS011;73355;49.044;8.686;2024-02-23T10:05:57;1.95;;;0.50;;
83423;SDS011;73355;49.044;8.686;2024-02-23T10:08:23;2.10;;;0.40;;
83423;SDS011;73355;49.044;8.686;2024-02-23T10:10:48;3.25;;;0.50;;
83423;SDS011;73355;49.044;8.686;2024-02-23T10:13:24;2.53;;;0.30;;
83423;SDS011;73355;49.044;8.686;2024-02-23T10:15:49;3.78;;;0.40;;
83423;SDS011;73355;49.044;8.686;2024-02-23T10:18:18;2.28;;;0.60;;
83423;SDS011;73355;49.044;8.686;2024-02-23T10:20:44;1.20;;;0.32;;
83423;SDS011;73355;49.044;8.686;2024-02-23T10:23:09;1.80;;;0.20;;
83423;SDS011;73355;49.044;8.686;2024-02-23T10:25:36;1.77;;;0.50;;
83423;SDS011;73355;49.044;8.686;2024-02-23T10:28:05;1.10;;;0.30;;
83423;SDS011;73355;49.044;8.686;2024-02-23T10:30:31;2.10;;;0.50;;
83423;SDS011;73355;49.044;8.686;2024-02-23T10:32:58;5.15;;;0.60;;
83423;SDS011;73355;49.044;8.686;2024-02-23T10:35:24;0.98;;;0.50;;
83423;SDS011;73355;49.044;8.686;2024-02-23T10:40:22;4.28;;;0.55;;
83423;SDS011;73355;49.044;8.686;2024-02-23T10:42:48;1.13;;;0.40;;
83423;SDS011;73355;49.044;8.686;2024-02-23T10:45:19;1.95;;;0.40;;
83423;SDS011;73355;49.044;8.686;2024-02-23T10:47:45;2.78;;;0.47;;
83423;SDS011;73355;49.044;8.686;2024-02-23T10:50:13;2.20;;;0.50;;
83423;SDS011;73355;49.044;8.686;2024-02-23T10:55:06;2.63;;;0.43;;
83423;SDS011;73355;49.044;8.686;2024-02-23T10:57:34;4.60;;;0.50;;
83423;SDS011;73355;49.044;8.686;2024-02-23T11:00:00;2.83;;;0.47;;
83423;SDS011;73355;49.044;8.686;2024-02-23T11:02:27;0.98;;;0.30;;
83423;SDS011;73355;49.044;8.686;2024-02-23T11:04:57;3.42;;;0.70;;
83423;SDS011;73355;49.044;8.686;2024-02-23T11:07:24;1.27;;;0.40;;
83423;SDS011;73355;49.044;8.686;2024-02-23T11:12:38;2.08;;;0.40;;
83423;SDS011;73355;49.044;8.686;2024-02-23T11:15:06;1.40;;;0.77;;
83423;SDS011;73355;49.044;8.686;2024-02-23T11:17:32;1.23;;;0.22;;
83423;SDS011;73355;49.044;8.686;2024-02-23T11:20:02;0.63;;;0.28;;
83423;SDS011;73355;49.044;8.686;2024-02-23T11:22:32;1.40;;;0.40;;
83423;SDS011;73355;49.044;8.686;2024-02-23T11:25:08;1.50;;;0.38;;
83423;SDS011;73355;49.044;8.686;2024-02-23T11:27:35;2.00;;;0.35;;
83423;SDS011;73355;49.044;8.686;2024-02-23T11:30:10;2.50;;;0.70;;
83423;SDS011;73355;49.044;8.686;2024-02-23T11:32:37;2.67;;;0.85;;
83423;SDS011;73355;49.044;8.686;2024-02-23T11:35:05;0.95;;;0.47;;
83423;SDS011;73355;49.044;8.686;2024-02-23T11:37:31;0.90;;;0.30;;
83423;SDS011;73355;49.044;8.686;2024-02-23T11:39:57;1.60;;;0.30;;
83423;SDS011;73355;49.044;8.686;2024-02-23T11:42:24;1.27;;;0.47;;
83423;SDS011;73355;49.044;8.686;2024-02-23T11:44:51;0.93;;;0.45;;
83423;SDS011;73355;49.044;8.686;2024-02-23T11:47:18;2.25;;;0.40;;
83423;SDS011;73355;49.044;8.686;2024-02-23T11:49:44;2.40;;;0.57;;
83423;SDS011;73355;49.044;8.686;2024-02-23T11:52:09;2.50;;;0.75;;
83423;SDS011;73355;49.044;8.686;2024-02-23T11:54:35;1.48;;;0.32;;
83423;SDS011;73355;49.044;8.686;2024-02-23T11:57:00;1.95;;;0.52;;
83423;SDS011;73355;49.044;8.686;2024-02-23T11:59:26;2.50;;;0.50;;
83423;SDS011;73355;49.044;8.686;2024-02-23T12:01:51;2.88;;;0.52;;
83423;SDS011;73355;49.044;8.686;2024-02-23T12:04:16;3.10;;;0.67;;
83423;SDS011;73355;49.044;8.686;2024-02-23T12:06:42;1.73;;;0.50;;
83423;SDS011;73355;49.044;8.686;2024-02-23T12:09:08;1.90;;;0.40;;
83423;SDS011;73355;49.044;8.686;2024-02-23T12:11:37;1.27;;;0.52;;
83423;SDS011;73355;49.044;8.686;2024-02-23T12:14:03;0.75;;;0.20;;
83423;SDS011;73355;49.044;8.686;2024-02-23T12:16:32;3.25;;;0.40;;
83423;SDS011;73355;49.044;8.686;2024-02-23T12:18:58;3.63;;;0.40;;
83423;SDS011;73355;49.044;8.686;2024-02-23T12:21:26;4.55;;;0.60;;
83423;SDS011;73355;49.044;8.686;2024-02-23T12:23:51;2.27;;;0.50;;
83423;SDS011;73355;49.044;8.686;2024-02-23T12:26:16;2.47;;;0.60;;
83423;SDS011;73355;49.044;8.686;2024-02-23T12:28:43;3.65;;;1.00;;
83423;SDS011;73355;49.044;8.686;2024-02-23T12:33:35;2.50;;;0.73;;
83423;SDS011;73355;49.044;8.686;2024-02-23T12:36:02;1.08;;;0.50;;
83423;SDS011;73355;49.044;8.686;2024-02-23T12:38:29;2.47;;;0.60;;
83423;SDS011;73355;49.044;8.686;2024-02-23T12:40:54;3.90;;;0.60;;
83423;SDS011;73355;49.044;8.686;2024-02-23T12:43:20;1.50;;;0.50;;
83423;SDS011;73355;49.044;8.686;2024-02-23T12:45:52;3.28;;;0.50;;
83423;SDS011;73355;49.044;8.686;2024-02-23T12:48:18;3.50;;;0.88;;
83423;SDS011;73355;49.044;8.686;2024-02-23T12:50:43;1.98;;;0.60;;
83423;SDS011;73355;49.044;8.686;2024-02-23T12:53:10;3.22;;;0.75;;
83423;SDS011;73355;49.044;8.686;2024-02-23T12:55:54;3.28;;;0.60;;
83423;SDS011;73355;49.044;8.686;2024-02-23T12:58:19;3.57;;;0.50;;
83423;SDS011;73355;49.044;8.686;2024-02-23T13:00:45;2.60;;;0.70;;
83423;SDS011;73355;49.044;8.686;2024-02-23T13:03:10;2.97;;;0.60;;
83423;SDS011;73355;49.044;8.686;2024-02-23T13:05:41;2.75;;;0.52;;
83423;SDS011;73355;49.044;8.686;2024-02-23T13:08:07;3.45;;;0.73;;
83423;SDS011;73355;49.044;8.686;2024-02-23T13:10:32;2.65;;;0.70;;
83423;SDS011;73355;49.044;8.686;2024-02-23T13:12:59;1.35;;;0.60;;
83423;SDS011;73355;49.044;8.686;2024-02-23T13:15:25;3.13;;;0.60;;
83423;SDS011;73355;49.044;8.686;2024-02-23T13:17:50;3.65;;;1.00;;
83423;SDS011;73355;49.044;8.686;2024-02-23T13:20:18;3.40;;;0.82;;
83423;SDS011;73355;49.044;8.686;2024-02-23T13:22:43;4.23;;;0.90;;
83423;SDS011;73355;49.044;8.686;2024-02-23T13:25:09;3.77;;;0.80;;
83423;SDS011;73355;49.044;8.686;2024-02-23T13:27:34;1.30;;;0.67;;
83423;SDS011;73355;49.044;8.686;2024-02-23T13:29:59;3.40;;;0.70;;
83423;SDS011;73355;49.044;8.686;2024-02-23T13:32:24;2.63;;;0.63;;
83423;SDS011;73355;49.044;8.686;2024-02-23T13:34:50;4.03;;;0.83;;
83423;SDS011;73355;49.044;8.686;2024-02-23T13:37:17;1.95;;;0.60;;
83423;SDS011;73355;49.044;8.686;2024-02-23T13:39:43;2.65;;;0.50;;
83423;SDS011;73355;49.044;8.686;2024-02-23T13:42:08;3.60;;;0.67;;
83423;SDS011;73355;49.044;8.686;2024-02-23T13:44:34;2.72;;;0.60;;
83423;SDS011;73355;49.044;8.686;2024-02-23T13:47:00;4.03;;;0.80;;
83423;SDS011;73355;49.044;8.686;2024-02-23T13:49:25;1.90;;;1.10;;
83423;SDS011;73355;49.044;8.686;2024-02-23T13:51:51;1.37;;;0.60;;
83423;SDS011;73355;49.044;8.686;2024-02-23T13:54:16;3.50;;;0.60;;
83423;SDS011;73355;49.044;8.686;2024-02-23T13:56:41;5.50;;;0.80;;
83423;SDS011;73355;49.044;8.686;2024-02-23T13:59:06;3.53;;;0.70;;
83423;SDS011;73355;49.044;8.686;2024-02-23T14:01:32;4.50;;;0.90;;
83423;SDS011;73355;49.044;8.686;2024-02-23T14:03:57;1.98;;;0.50;;
83423;SDS011;73355;49.044;8.686;2024-02-23T14:06:22;1.30;;;0.70;;
83423;SDS011;73355;49.044;8.686;2024-02-23T14:08:48;1.45;;;0.80;;
83423;SDS011;73355;49.044;8.686;2024-02-23T14:11:14;1.80;;;0.50;;
83423;SDS011;73355;49.044;8.686;2024-02-23T14:13:39;1.87;;;0.43;;
83423;SDS011;73355;49.044;8.686;2024-02-23T14:16:04;4.27;;;0.60;;
83423;SDS011;73355;49.044;8.686;2024-02-23T14:18:31;1.75;;;0.55;;
83423;SDS011;73355;49.044;8.686;2024-02-23T14:20:57;2.35;;;0.77;;
83423;SDS011;73355;49.044;8.686;2024-02-23T14:23:22;3.05;;;0.65;;
83423;SDS011;73355;49.044;8.686;2024-02-23T14:25:48;2.67;;;0.60;;
83423;SDS011;73355;49.044;8.686;2024-02-23T14:28:13;1.50;;;0.50;;
83423;SDS011;73355;49.044;8.686;2024-02-23T14:30:39;3.72;;;0.60;;
83423;SDS011;73355;49.044;8.686;2024-02-23T14:33:05;3.20;;;0.55;;
83423;SDS011;73355;49.044;8.686;2024-02-23T14:35:31;1.83;;;0.57;;
83423;SDS011;73355;49.044;8.686;2024-02-23T14:37:56;1.77;;;0.40;;
83423;SDS011;73355;49.044;8.686;2024-02-23T14:40:21;4.00;;;0.60;;
83423;SDS011;73355;49.044;8.686;2024-02-23T14:42:46;3.20;;;0.53;;
83423;SDS011;73355;49.044;8.686;2024-02-23T14:45:12;3.50;;;0.50;;
83423;SDS011;73355;49.044;8.686;2024-02-23T14:47:38;1.52;;;0.70;;
83423;SDS011;73355;49.044;8.686;2024-02-23T14:50:04;2.97;;;0.70;;